TRPG

Details ICAO TRPG (MNI)
Name Montserrat - John A Osborne
Region UK (Montserrat)
Timezone America/Montserrat (UTC-4.0)
Plans Departing 7
Arriving 7
Stats Elevation 551 ft / 168 m (AMSL)
Location 16.791335° -62.193328°
Runways 1
Magnetic Variation 14.630° W
Sunrise 2017-12-16 10:31:58 UTC / 2017-12-16 06:31:58 Local
Sunset 2017-12-16 21:39:47 UTC / 2017-12-16 17:39:47 Local
Advertisement - Login to hide

Runways

ID Width Length Bearing (true) Bearing (mag) Surface Threshold Offset Overrun Length
10 66 ft / 20 m 1,954 ft / 595 m 90.00° 104.63° Asphalt 98 ft / 30 m 0 ft / 0 m
28 66 ft / 20 m 1,954 ft / 595 m 270.00° 284.63° Asphalt 98 ft / 30 m 0 ft / 0 m

Map

Weather


0- 5 10 15 20 25 30 35+ Temperature / ° C

Clouds and Precipitation
Forecast for 2017-12-16 12:00 UTC. Updated 2 hours ago

Ground ~20,000 ft ~40,000 ft Winds

METAR

TRPG 161300Z 10011KT 9999 BKN020 26/23 Q1018

TAF

Not found

Frequencies

Recorded 129.65 MHz Geralds ATIS ATIS
Tower 118.80 MHz Geralds Tower TWR
Ground 121.90 MHz Geralds GND
Warning: Do not use this data for real-world aviation or navigation. No guarantee of current accuracy is given.